sensor_id;sensor_type;location;lat;lon;timestamp;pressure;altitude;pressure_sealevel;temperature;humidity
51439;BME280;38816;51.142;-0.974;2022-12-07T00:01:32;100917.63;;;2.08;100.00
51439;BME280;38816;51.142;-0.974;2022-12-07T00:04:01;100925.50;;;2.12;100.00
51439;BME280;38816;51.142;-0.974;2022-12-07T00:06:39;100921.03;;;2.08;100.00
51439;BME280;38816;51.142;-0.974;2022-12-07T00:09:06;100923.38;;;2.05;100.00
51439;BME280;38816;51.142;-0.974;2022-12-07T00:11:32;100924.16;;;2.04;100.00
51439;BME280;38816;51.142;-0.974;2022-12-07T00:14:00;100917.06;;;1.98;100.00
51439;BME280;38816;51.142;-0.974;2022-12-07T00:16:29;100927.38;;;2.01;100.00
51439;BME280;38816;51.142;-0.974;2022-12-07T00:18:55;100928.81;;;1.98;100.00
51439;BME280;38816;51.142;-0.974;2022-12-07T00:21:32;100926.41;;;1.99;100.00
51439;BME280;38816;51.142;-0.974;2022-12-07T00:23:58;100917.22;;;2.01;100.00
51439;BME280;38816;51.142;-0.974;2022-12-07T00:26:25;100929.00;;;2.14;100.00
51439;BME280;38816;51.142;-0.974;2022-12-07T00:28:56;100907.50;;;2.22;100.00
51439;BME280;38816;51.142;-0.974;2022-12-07T00:31:24;100913.22;;;2.33;100.00
51439;BME280;38816;51.142;-0.974;2022-12-07T00:33:50;100917.81;;;2.39;100.00
51439;BME280;38816;51.142;-0.974;2022-12-07T00:36:19;100912.63;;;2.37;100.00
51439;BME280;38816;51.142;-0.974;2022-12-07T00:38:45;100916.16;;;2.39;100.00
51439;BME280;38816;51.142;-0.974;2022-12-07T00:41:13;100892.66;;;2.28;100.00
51439;BME280;38816;51.142;-0.974;2022-12-07T00:43:39;100909.75;;;2.46;100.00
51439;BME280;38816;51.142;-0.974;2022-12-07T00:46:04;100902.28;;;2.34;100.00
51439;BME280;38816;51.142;-0.974;2022-12-07T00:48:30;100897.56;;;2.25;100.00
51439;BME280;38816;51.142;-0.974;2022-12-07T00:50:56;100881.59;;;2.13;100.00
51439;BME280;38816;51.142;-0.974;2022-12-07T00:53:21;100887.00;;;2.05;100.00
51439;BME280;38816;51.142;-0.974;2022-12-07T00:55:47;100903.06;;;2.05;100.00
51439;BME280;38816;51.142;-0.974;2022-12-07T00:58:13;100908.69;;;2.14;100.00
51439;BME280;38816;51.142;-0.974;2022-12-07T01:00:40;100907.16;;;2.16;100.00
51439;BME280;38816;51.142;-0.974;2022-12-07T01:03:07;100901.56;;;2.22;100.00
51439;BME280;38816;51.142;-0.974;2022-12-07T01:05:33;100892.69;;;2.15;100.00
51439;BME280;38816;51.142;-0.974;2022-12-07T01:07:59;100898.91;;;2.20;100.00
51439;BME280;38816;51.142;-0.974;2022-12-07T01:10:25;100893.69;;;2.17;100.00
51439;BME280;38816;51.142;-0.974;2022-12-07T01:12:51;100903.13;;;2.20;100.00
51439;BME280;38816;51.142;-0.974;2022-12-07T01:15:16;100896.38;;;2.20;100.00
51439;BME280;38816;51.142;-0.974;2022-12-07T01:17:42;100904.97;;;2.22;100.00
51439;BME280;38816;51.142;-0.974;2022-12-07T01:20:07;100890.00;;;2.12;100.00
51439;BME280;38816;51.142;-0.974;2022-12-07T01:22:37;100887.34;;;2.11;100.00
51439;BME280;38816;51.142;-0.974;2022-12-07T01:25:04;100897.00;;;2.16;100.00
51439;BME280;38816;51.142;-0.974;2022-12-07T01:27:30;100885.69;;;2.11;100.00
51439;BME280;38816;51.142;-0.974;2022-12-07T01:29:55;100889.81;;;2.09;100.00
51439;BME280;38816;51.142;-0.974;2022-12-07T01:32:20;100892.84;;;2.03;100.00
51439;BME280;38816;51.142;-0.974;2022-12-07T01:34:47;100881.88;;;1.90;100.00
51439;BME280;38816;51.142;-0.974;2022-12-07T01:37:13;100880.31;;;1.78;100.00
51439;BME280;38816;51.142;-0.974;2022-12-07T01:39:38;100888.34;;;1.71;100.00
51439;BME280;38816;51.142;-0.974;2022-12-07T01:42:04;100889.41;;;1.62;100.00
51439;BME280;38816;51.142;-0.974;2022-12-07T01:44:29;100875.28;;;1.52;100.00
51439;BME280;38816;51.142;-0.974;2022-12-07T01:46:58;100891.84;;;1.60;100.00
51439;BME280;38816;51.142;-0.974;2022-12-07T01:52:24;100885.59;;;1.68;100.00
51439;BME280;38816;51.142;-0.974;2022-12-07T01:54:51;100890.25;;;1.75;100.00
51439;BME280;38816;51.142;-0.974;2022-12-07T01:57:19;100887.91;;;1.78;100.00
51439;BME280;38816;51.142;-0.974;2022-12-07T01:59:48;100884.59;;;1.80;100.00
51439;BME280;38816;51.142;-0.974;2022-12-07T02:02:26;100893.38;;;1.85;100.00
51439;BME280;38816;51.142;-0.974;2022-12-07T02:04:53;100887.72;;;1.75;100.00
51439;BME280;38816;51.142;-0.974;2022-12-07T02:07:20;100884.31;;;1.75;100.00
51439;BME280;38816;51.142;-0.974;2022-12-07T02:09:46;100881.69;;;1.73;100.00
51439;BME280;38816;51.142;-0.974;2022-12-07T02:12:11;100889.31;;;1.73;100.00
51439;BME280;38816;51.142;-0.974;2022-12-07T02:14:37;100885.09;;;1.74;100.00
51439;BME280;38816;51.142;-0.974;2022-12-07T02:17:25;100899.13;;;1.82;100.00
51439;BME280;38816;51.142;-0.974;2022-12-07T02:25:38;100899.13;;;1.82;100.00
51439;BME280;38816;51.142;-0.974;2022-12-07T02:31:11;100896.31;;;1.77;100.00
51439;BME280;38816;51.142;-0.974;2022-12-07T02:33:45;100905.00;;;1.81;100.00
51439;BME280;38816;51.142;-0.974;2022-12-07T02:36:27;100900.88;;;1.83;100.00
51439;BME280;38816;51.142;-0.974;2022-12-07T02:41:28;100894.34;;;1.87;100.00
51439;BME280;38816;51.142;-0.974;2022-12-07T02:43:59;100892.78;;;1.89;100.00
51439;BME280;38816;51.142;-0.974;2022-12-07T02:46:48;100889.66;;;1.80;100.00
51439;BME280;38816;51.142;-0.974;2022-12-07T02:49:16;100887.56;;;1.72;100.00
51439;BME280;38816;51.142;-0.974;2022-12-07T02:51:44;100892.63;;;1.72;100.00
51439;BME280;38816;51.142;-0.974;2022-12-07T02:54:16;100878.03;;;1.55;100.00
51439;BME280;38816;51.142;-0.974;2022-12-07T02:56:48;100887.06;;;1.65;100.00
51439;BME280;38816;51.142;-0.974;2022-12-07T03:07:27;100878.03;;;1.55;100.00
51439;BME280;38816;51.142;-0.974;2022-12-07T03:10:09;100876.44;;;1.57;100.00
51439;BME280;38816;51.142;-0.974;2022-12-07T03:12:49;100880.06;;;1.61;100.00
51439;BME280;38816;51.142;-0.974;2022-12-07T03:15:35;100877.44;;;1.59;100.00
51439;BME280;38816;51.142;-0.974;2022-12-07T03:18:05;100863.50;;;1.52;100.00
51439;BME280;38816;51.142;-0.974;2022-12-07T03:20:34;100861.53;;;1.62;100.00
51439;BME280;38816;51.142;-0.974;2022-12-07T03:23:04;100871.06;;;1.66;100.00
51439;BME280;38816;51.142;-0.974;2022-12-07T03:25:30;100874.19;;;1.62;100.00
51439;BME280;38816;51.142;-0.974;2022-12-07T03:27:58;100873.03;;;1.70;100.00
51439;BME280;38816;51.142;-0.974;2022-12-07T03:30:31;100871.06;;;1.66;100.00
51439;BME280;38816;51.142;-0.974;2022-12-07T03:33:03;100863.38;;;1.64;100.00
51439;BME280;38816;51.142;-0.974;2022-12-07T03:35:43;100864.84;;;1.61;100.00
51439;BME280;38816;51.142;-0.974;2022-12-07T03:38:23;100866.22;;;1.56;100.00
51439;BME280;38816;51.142;-0.974;2022-12-07T03:40:55;100869.56;;;1.55;100.00
51439;BME280;38816;51.142;-0.974;2022-12-07T03:43:22;100868.28;;;1.48;100.00
51439;BME280;38816;51.142;-0.974;2022-12-07T03:49:08;100853.19;;;1.36;100.00
51439;BME280;38816;51.142;-0.974;2022-12-07T03:54:18;100846.28;;;1.34;100.00
51439;BME280;38816;51.142;-0.974;2022-12-07T03:56:45;100861.88;;;1.40;100.00
51439;BME280;38816;51.142;-0.974;2022-12-07T03:59:13;100855.03;;;1.39;100.00
51439;BME280;38816;51.142;-0.974;2022-12-07T04:01:42;100864.00;;;1.47;100.00
51439;BME280;38816;51.142;-0.974;2022-12-07T04:04:07;100865.75;;;1.48;100.00
51439;BME280;38816;51.142;-0.974;2022-12-07T04:06:33;100864.38;;;1.53;100.00
51439;BME280;38816;51.142;-0.974;2022-12-07T04:08:58;100865.44;;;1.57;100.00
51439;BME280;38816;51.142;-0.974;2022-12-07T04:11:23;100869.34;;;1.65;100.00
51439;BME280;38816;51.142;-0.974;2022-12-07T04:13:49;100870.03;;;1.62;100.00
51439;BME280;38816;51.142;-0.974;2022-12-07T04:16:33;100858.81;;;1.59;100.00
51439;BME280;38816;51.142;-0.974;2022-12-07T04:18:58;100867.59;;;1.64;100.00
51439;BME280;38816;51.142;-0.974;2022-12-07T04:21:23;100856.38;;;1.60;100.00
51439;BME280;38816;51.142;-0.974;2022-12-07T04:23:49;100864.19;;;1.63;100.00
51439;BME280;38816;51.142;-0.974;2022-12-07T04:26:14;100864.25;;;1.65;100.00
51439;BME280;38816;51.142;-0.974;2022-12-07T04:28:39;100852.97;;;1.60;100.00
51439;BME280;38816;51.142;-0.974;2022-12-07T04:31:05;100846.25;;;1.60;100.00
51439;BME280;38816;51.142;-0.974;2022-12-07T04:33:30;100841.56;;;1.53;100.00
51439;BME280;38816;51.142;-0.974;2022-12-07T04:35:56;100844.09;;;1.53;100.00
51439;BME280;38816;51.142;-0.974;2022-12-07T04:38:21;100855.31;;;1.57;100.00
51439;BME280;38816;51.142;-0.974;2022-12-07T04:40:46;100856.19;;;1.57;100.00
51439;BME280;38816;51.142;-0.974;2022-12-07T04:43:12;100849.16;;;1.53;100.00
51439;BME280;38816;51.142;-0.974;2022-12-07T04:45:37;100850.94;;;1.54;100.00
51439;BME280;38816;51.142;-0.974;2022-12-07T04:48:03;100844.50;;;1.46;100.00
51439;BME280;38816;51.142;-0.974;2022-12-07T04:50:28;100859.28;;;1.53;100.00
51439;BME280;38816;51.142;-0.974;2022-12-07T04:52:53;100831.47;;;1.40;100.00
51439;BME280;38816;51.142;-0.974;2022-12-07T04:55:19;100843.72;;;1.47;100.00
51439;BME280;38816;51.142;-0.974;2022-12-07T04:57:44;100853.63;;;1.57;100.00
51439;BME280;38816;51.142;-0.974;2022-12-07T05:00:10;100856.28;;;1.59;100.00
51439;BME280;38816;51.142;-0.974;2022-12-07T05:05:48;100848.97;;;1.63;100.00
51439;BME280;38816;51.142;-0.974;2022-12-07T05:08:13;100836.81;;;1.58;100.00
51439;BME280;38816;51.142;-0.974;2022-12-07T05:10:39;100837.84;;;1.61;100.00
51439;BME280;38816;51.142;-0.974;2022-12-07T05:13:04;100835.44;;;1.63;100.00
51439;BME280;38816;51.142;-0.974;2022-12-07T05:15:29;100843.47;;;1.70;100.00
51439;BME280;38816;51.142;-0.974;2022-12-07T05:17:55;100831.22;;;1.63;100.00
51439;BME280;38816;51.142;-0.974;2022-12-07T05:20:20;100841.75;;;1.69;100.00
51439;BME280;38816;51.142;-0.974;2022-12-07T05:22:46;100840.28;;;1.73;100.00
51439;BME280;38816;51.142;-0.974;2022-12-07T05:25:11;100835.78;;;1.69;100.00
51439;BME280;38816;51.142;-0.974;2022-12-07T05:27:36;100822.47;;;1.58;100.00
51439;BME280;38816;51.142;-0.974;2022-12-07T05:30:02;100834.13;;;1.69;100.00
51439;BME280;38816;51.142;-0.974;2022-12-07T05:32:28;100821.69;;;1.59;100.00
51439;BME280;38816;51.142;-0.974;2022-12-07T05:34:53;100831.81;;;1.59;100.00
51439;BME280;38816;51.142;-0.974;2022-12-07T05:37:20;100834.34;;;1.59;100.00
51439;BME280;38816;51.142;-0.974;2022-12-07T05:39:45;100844.56;;;1.61;100.00
51439;BME280;38816;51.142;-0.974;2022-12-07T05:42:10;100839.44;;;1.59;100.00
51439;BME280;38816;51.142;-0.974;2022-12-07T05:44:43;100835.75;;;1.54;100.00
51439;BME280;38816;51.142;-0.974;2022-12-07T05:47:10;100830.47;;;1.51;100.00
51439;BME280;38816;51.142;-0.974;2022-12-07T05:49:36;100836.97;;;1.61;100.00
51439;BME280;38816;51.142;-0.974;2022-12-07T05:52:01;100820.41;;;1.52;100.00
51439;BME280;38816;51.142;-0.974;2022-12-07T05:54:27;100834.34;;;1.59;100.00
51439;BME280;38816;51.142;-0.974;2022-12-07T05:56:52;100824.03;;;1.56;100.00
51439;BME280;38816;51.142;-0.974;2022-12-07T05:59:17;100831.75;;;1.58;100.00
51439;BME280;38816;51.142;-0.974;2022-12-07T06:02:10;100832.50;;;1.57;100.00
51439;BME280;38816;51.142;-0.974;2022-12-07T06:04:39;100821.50;;;1.43;100.00
51439;BME280;38816;51.142;-0.974;2022-12-07T06:07:05;100835.84;;;1.42;100.00
51439;BME280;38816;51.142;-0.974;2022-12-07T06:09:31;100835.75;;;1.41;100.00
51439;BME280;38816;51.142;-0.974;2022-12-07T06:11:57;100811.91;;;1.24;100.00
51439;BME280;38816;51.142;-0.974;2022-12-07T06:14:42;100822.31;;;1.29;100.00
51439;BME280;38816;51.142;-0.974;2022-12-07T06:17:08;100817.25;;;1.15;100.00
51439;BME280;38816;51.142;-0.974;2022-12-07T06:19:34;100833.31;;;1.16;100.00
51439;BME280;38816;51.142;-0.974;2022-12-07T06:22:00;100832.44;;;1.15;100.00
51439;BME280;38816;51.142;-0.974;2022-12-07T06:24:26;100841.03;;;1.17;100.00
51439;BME280;38816;51.142;-0.974;2022-12-07T06:26:51;100843.16;;;1.11;100.00
51439;BME280;38816;51.142;-0.974;2022-12-07T06:29:17;100829.13;;;1.03;100.00
51439;BME280;38816;51.142;-0.974;2022-12-07T06:31:43;100828.19;;;1.01;100.00
51439;BME280;38816;51.142;-0.974;2022-12-07T06:34:11;100833.72;;;1.09;100.00
51439;BME280;38816;51.142;-0.974;2022-12-07T06:36:37;100834.19;;;1.03;100.00
51439;BME280;38816;51.142;-0.974;2022-12-07T06:39:03;100822.31;;;1.02;100.00
51439;BME280;38816;51.142;-0.974;2022-12-07T06:41:29;100834.31;;;1.05;100.00
51439;BME280;38816;51.142;-0.974;2022-12-07T06:43:54;100834.31;;;1.05;100.00
51439;BME280;38816;51.142;-0.974;2022-12-07T06:46:20;100833.59;;;0.94;100.00
51439;BME280;38816;51.142;-0.974;2022-12-07T06:48:45;100827.00;;;0.96;100.00
51439;BME280;38816;51.142;-0.974;2022-12-07T06:51:11;100838.38;;;1.02;100.00
51439;BME280;38816;51.142;-0.974;2022-12-07T06:53:36;100832.16;;;0.97;100.00
51439;BME280;38816;51.142;-0.974;2022-12-07T06:56:03;100828.66;;;0.95;100.00
51439;BME280;38816;51.142;-0.974;2022-12-07T06:58:29;100834.47;;;0.94;100.00
51439;BME280;38816;51.142;-0.974;2022-12-07T07:00:55;100823.78;;;0.85;100.00
51439;BME280;38816;51.142;-0.974;2022-12-07T07:03:20;100838.06;;;0.85;100.00
51439;BME280;38816;51.142;-0.974;2022-12-07T07:05:46;100846.47;;;0.84;100.00
51439;BME280;38816;51.142;-0.974;2022-12-07T07:08:11;100829.91;;;0.75;100.00
51439;BME280;38816;51.142;-0.974;2022-12-07T07:10:37;100844.13;;;0.87;100.00
51439;BME280;38816;51.142;-0.974;2022-12-07T07:13:03;100841.97;;;0.80;100.00
51439;BME280;38816;51.142;-0.974;2022-12-07T07:15:29;100847.25;;;0.83;100.00
51439;BME280;38816;51.142;-0.974;2022-12-07T07:17:55;100845.66;;;0.85;100.00
51439;BME280;38816;51.142;-0.974;2022-12-07T07:20:20;100844.22;;;0.88;100.00
51439;BME280;38816;51.142;-0.974;2022-12-07T07:22:46;100834.59;;;0.83;100.00
51439;BME280;38816;51.142;-0.974;2022-12-07T07:25:11;100850.38;;;0.92;100.00
51439;BME280;38816;51.142;-0.974;2022-12-07T07:27:36;100845.00;;;0.87;100.00
51439;BME280;38816;51.142;-0.974;2022-12-07T07:30:03;100856.22;;;0.91;100.00
51439;BME280;38816;51.142;-0.974;2022-12-07T07:32:28;100853.25;;;0.85;100.00
51439;BME280;38816;51.142;-0.974;2022-12-07T07:34:53;100853.38;;;0.86;100.00
51439;BME280;38816;51.142;-0.974;2022-12-07T07:37:19;100863.97;;;0.94;100.00
51439;BME280;38816;51.142;-0.974;2022-12-07T07:39:44;100864.19;;;0.97;100.00
51439;BME280;38816;51.142;-0.974;2022-12-07T07:42:09;100856.38;;;0.94;100.00
51439;BME280;38816;51.142;-0.974;2022-12-07T07:44:35;100847.06;;;0.93;100.00
51439;BME280;38816;51.142;-0.974;2022-12-07T07:47:00;100849.22;;;1.00;100.00
51439;BME280;38816;51.142;-0.974;2022-12-07T07:49:26;100845.03;;;1.00;100.00
51439;BME280;38816;51.142;-0.974;2022-12-07T07:51:52;100844.16;;;1.00;100.00
51439;BME280;38816;51.142;-0.974;2022-12-07T07:54:17;100844.72;;;0.96;100.00
51439;BME280;38816;51.142;-0.974;2022-12-07T07:56:42;100851.84;;;1.01;100.00
51439;BME280;38816;51.142;-0.974;2022-12-07T07:59:08;100851.31;;;0.94;100.00
51439;BME280;38816;51.142;-0.974;2022-12-07T08:01:33;100850.56;;;0.95;100.00
51439;BME280;38816;51.142;-0.974;2022-12-07T08:03:59;100854.56;;;1.05;100.00
51439;BME280;38816;51.142;-0.974;2022-12-07T08:06:24;100847.44;;;0.99;100.00
51439;BME280;38816;51.142;-0.974;2022-12-07T08:08:50;100863.69;;;1.02;100.00
51439;BME280;38816;51.142;-0.974;2022-12-07T08:11:15;100861.88;;;1.00;100.00
51439;BME280;38816;51.142;-0.974;2022-12-07T08:13:41;100866.22;;;1.02;100.00
51439;BME280;38816;51.142;-0.974;2022-12-07T08:16:09;100868.31;;;1.08;100.00
51439;BME280;38816;51.142;-0.974;2022-12-07T08:18:39;100867.41;;;1.08;100.00
51439;BME280;38816;51.142;-0.974;2022-12-07T08:21:05;100877.06;;;1.13;100.00
51439;BME280;38816;51.142;-0.974;2022-12-07T08:23:31;100874.44;;;1.25;100.00
51439;BME280;38816;51.142;-0.974;2022-12-07T08:26:04;100873.56;;;1.24;100.00
51439;BME280;38816;51.142;-0.974;2022-12-07T08:28:30;100867.53;;;1.22;100.00
51439;BME280;38816;51.142;-0.974;2022-12-07T08:31:16;100867.91;;;1.29;100.00
51439;BME280;38816;51.142;-0.974;2022-12-07T08:33:42;100859.44;;;1.28;100.00
51439;BME280;38816;51.142;-0.974;2022-12-07T08:36:09;100853.59;;;1.29;100.00
51439;BME280;38816;51.142;-0.974;2022-12-07T08:38:36;100868.28;;;1.35;100.00
51439;BME280;38816;51.142;-0.974;2022-12-07T08:41:02;100861.28;;;1.31;100.00
51439;BME280;38816;51.142;-0.974;2022-12-07T08:43:27;100862.47;;;1.36;100.00
51439;BME280;38816;51.142;-0.974;2022-12-07T08:48:42;100854.56;;;1.31;100.00
51439;BME280;38816;51.142;-0.974;2022-12-07T08:51:09;100868.47;;;1.38;100.00
51439;BME280;38816;51.142;-0.974;2022-12-07T08:53:36;100875.41;;;1.27;100.00
51439;BME280;38816;51.142;-0.974;2022-12-07T08:56:03;100867.03;;;1.28;100.00
51439;BME280;38816;51.142;-0.974;2022-12-07T08:58:29;100864.00;;;1.34;100.00
51439;BME280;38816;51.142;-0.974;2022-12-07T09:00:54;100869.56;;;1.41;100.00
51439;BME280;38816;51.142;-0.974;2022-12-07T09:03:20;100872.19;;;1.43;100.00
51439;BME280;38816;51.142;-0.974;2022-12-07T09:05:45;100866.38;;;1.31;100.00
51439;BME280;38816;51.142;-0.974;2022-12-07T09:08:11;100865.88;;;1.36;100.00
51439;BME280;38816;51.142;-0.974;2022-12-07T09:10:36;100846.56;;;1.25;100.00
51439;BME280;38816;51.142;-0.974;2022-12-07T09:13:01;100867.81;;;1.40;100.00
51439;BME280;38816;51.142;-0.974;2022-12-07T09:15:28;100876.97;;;1.38;100.00
51439;BME280;38816;51.142;-0.974;2022-12-07T09:17:54;100868.28;;;1.35;100.00
51439;BME280;38816;51.142;-0.974;2022-12-07T09:20:19;100869.47;;;1.40;100.00
51439;BME280;38816;51.142;-0.974;2022-12-07T09:22:45;100865.88;;;1.36;100.00
51439;BME280;38816;51.142;-0.974;2022-12-07T09:25:10;100871.81;;;1.37;100.00
51439;BME280;38816;51.142;-0.974;2022-12-07T09:27:35;100866.38;;;1.31;100.00
51439;BME280;38816;51.142;-0.974;2022-12-07T09:30:02;100860.31;;;1.29;100.00
51439;BME280;38816;51.142;-0.974;2022-12-07T09:32:28;100856.03;;;1.27;100.00
51439;BME280;38816;51.142;-0.974;2022-12-07T09:34:53;100860.97;;;1.26;100.00
51439;BME280;38816;51.142;-0.974;2022-12-07T09:37:19;100867.91;;;1.29;100.00
51439;BME280;38816;51.142;-0.974;2022-12-07T09:39:44;100865.56;;;1.18;100.00
51439;BME280;38816;51.142;-0.974;2022-12-07T09:42:27;100865.38;;;1.15;100.00
51439;BME280;38816;51.142;-0.974;2022-12-07T09:44:53;100858.94;;;1.07;100.00
51439;BME280;38816;51.142;-0.974;2022-12-07T09:47:19;100877.06;;;1.13;100.00
51439;BME280;38816;51.142;-0.974;2022-12-07T09:49:44;100878.81;;;1.14;100.00
51439;BME280;38816;51.142;-0.974;2022-12-07T09:52:19;100868.00;;;1.17;100.00
51439;BME280;38816;51.142;-0.974;2022-12-07T09:54:48;100863.72;;;1.29;100.00
51439;BME280;38816;51.142;-0.974;2022-12-07T09:57:15;100869.56;;;1.41;100.00
51439;BME280;38816;51.142;-0.974;2022-12-07T09:59:41;100848.03;;;1.35;100.00
51439;BME280;38816;51.142;-0.974;2022-12-07T10:04:53;100863.13;;;1.33;100.00
51439;BME280;38816;51.142;-0.974;2022-12-07T10:07:19;100852.13;;;1.33;100.00
51439;BME280;38816;51.142;-0.974;2022-12-07T10:09:44;100852.91;;;1.32;100.00
51439;BME280;38816;51.142;-0.974;2022-12-07T10:12:11;100859.94;;;1.36;100.00
51439;BME280;38816;51.142;-0.974;2022-12-07T10:14:40;100858.75;;;1.31;100.00
51439;BME280;38816;51.142;-0.974;2022-12-07T10:17:32;100853.00;;;1.33;100.00
51439;BME280;38816;51.142;-0.974;2022-12-07T10:20:17;100855.44;;;1.45;100.00
51439;BME280;38816;51.142;-0.974;2022-12-07T10:25:29;100834.28;;;1.58;100.00
51439;BME280;38816;51.142;-0.974;2022-12-07T10:28:17;100838.03;;;1.77;100.00
51439;BME280;38816;51.142;-0.974;2022-12-07T10:30:51;100834.03;;;1.81;100.00
51439;BME280;38816;51.142;-0.974;2022-12-07T10:33:36;100828.25;;;1.84;100.00
51439;BME280;38816;51.142;-0.974;2022-12-07T10:36:23;100823.00;;;1.81;100.00
51439;BME280;38816;51.142;-0.974;2022-12-07T10:39:11;100814.66;;;1.68;100.00
51439;BME280;38816;51.142;-0.974;2022-12-07T10:44:23;100811.56;;;1.59;100.00
51439;BME280;38816;51.142;-0.974;2022-12-07T10:55:33;100803.75;;;1.56;100.00
51439;BME280;38816;51.142;-0.974;2022-12-07T11:00:29;100786.41;;;1.62;100.00
51439;BME280;38816;51.142;-0.974;2022-12-07T11:11:40;100801.41;;;1.87;100.00
51439;BME280;38816;51.142;-0.974;2022-12-07T11:17:04;100781.16;;;2.02;100.00
51439;BME280;38816;51.142;-0.974;2022-12-07T11:19:53;100780.69;;;2.08;100.00
51439;BME280;38816;51.142;-0.974;2022-12-07T11:25:31;100765.88;;;2.15;100.00
51439;BME280;38816;51.142;-0.974;2022-12-07T11:28:22;100766.16;;;2.20;100.00
51439;BME280;38816;51.142;-0.974;2022-12-07T11:33:22;100743.84;;;2.14;100.00
51439;BME280;38816;51.142;-0.974;2022-12-07T11:38:56;100746.59;;;2.17;100.00
51439;BME280;38816;51.142;-0.974;2022-12-07T11:41:27;100734.50;;;2.13;100.00
51439;BME280;38816;51.142;-0.974;2022-12-07T11:43:58;100748.31;;;2.18;100.00
51439;BME280;38816;51.142;-0.974;2022-12-07T11:46:27;100736.16;;;2.13;100.00
51439;BME280;38816;51.142;-0.974;2022-12-07T11:49:14;100735.72;;;2.20;100.00
51439;BME280;38816;51.142;-0.974;2022-12-07T11:51:42;100717.69;;;2.15;100.00
51439;BME280;38816;51.142;-0.974;2022-12-07T11:54:24;100729.44;;;2.28;100.00
51439;BME280;38816;51.142;-0.974;2022-12-07T11:56:52;100723.13;;;2.36;100.00
51439;BME280;38816;51.142;-0.974;2022-12-07T11:59:36;100710.19;;;2.32;100.00
51439;BME280;38816;51.142;-0.974;2022-12-07T12:02:15;100713.19;;;2.39;100.00
51439;BME280;38816;51.142;-0.974;2022-12-07T12:04:50;100717.09;;;2.49;100.00
51439;BME280;38816;51.142;-0.974;2022-12-07T12:07:23;100716.31;;;2.50;100.00
51439;BME280;38816;51.142;-0.974;2022-12-07T12:10:03;100707.03;;;2.50;100.00
51439;BME280;38816;51.142;-0.974;2022-12-07T12:12:45;100720.34;;;2.61;100.00
51439;BME280;38816;51.142;-0.974;2022-12-07T12:21:10;100707.09;;;2.67;100.00
51439;BME280;38816;51.142;-0.974;2022-12-07T12:23:41;100705.63;;;2.70;100.00
51439;BME280;38816;51.142;-0.974;2022-12-07T12:26:15;100694.22;;;2.64;100.00
51439;BME280;38816;51.142;-0.974;2022-12-07T12:28:57;100705.94;;;2.76;100.00
51439;BME280;38816;51.142;-0.974;2022-12-07T12:34:00;100697.69;;;2.81;100.00
51439;BME280;38816;51.142;-0.974;2022-12-07T12:51:51;100678.13;;;2.94;100.00
51439;BME280;38816;51.142;-0.974;2022-12-07T12:54:22;100670.44;;;2.93;100.00
51439;BME280;38816;51.142;-0.974;2022-12-07T13:26:19;100619.00;;;2.97;100.00
51439;BME280;38816;51.142;-0.974;2022-12-07T13:28:50;100621.94;;;3.04;100.00
51439;BME280;38816;51.142;-0.974;2022-12-07T13:31:49;100624.56;;;3.06;100.00
51439;BME280;38816;51.142;-0.974;2022-12-07T13:34:37;100621.78;;;3.01;100.00
51439;BME280;38816;51.142;-0.974;2022-12-07T13:37:10;100618.31;;;2.99;100.00
51439;BME280;38816;51.142;-0.974;2022-12-07T13:39:50;100609.81;;;2.99;100.00
51439;BME280;38816;51.142;-0.974;2022-12-07T13:42:26;100614.91;;;2.99;100.00
51439;BME280;38816;51.142;-0.974;2022-12-07T13:44:52;100593.53;;;2.95;100.00
51439;BME280;38816;51.142;-0.974;2022-12-07T13:47:35;100607.28;;;2.99;100.00
51439;BME280;38816;51.142;-0.974;2022-12-07T13:50:26;100589.66;;;2.86;100.00
51439;BME280;38816;51.142;-0.974;2022-12-07T13:52:55;100590.34;;;2.83;100.00
51439;BME280;38816;51.142;-0.974;2022-12-07T13:55:21;100592.19;;;2.86;100.00
51439;BME280;38816;51.142;-0.974;2022-12-07T13:57:50;100580.13;;;2.82;100.00
51439;BME280;38816;51.142;-0.974;2022-12-07T14:00:19;100578.44;;;2.82;100.00
51439;BME280;38816;51.142;-0.974;2022-12-07T14:02:55;100580.38;;;2.86;100.00
51439;BME280;38816;51.142;-0.974;2022-12-07T14:05:25;100572.03;;;2.89;100.00
51439;BME280;38816;51.142;-0.974;2022-12-07T14:08:03;100575.97;;;2.84;100.00
51439;BME280;38816;51.142;-0.974;2022-12-07T14:10:38;100582.50;;;2.78;100.00
51439;BME280;38816;51.142;-0.974;2022-12-07T14:13:33;100575.84;;;2.81;100.00
51439;BME280;38816;51.142;-0.974;2022-12-07T14:15:59;100567.13;;;2.75;100.00
51439;BME280;38816;51.142;-0.974;2022-12-07T14:18:43;100555.50;;;2.64;100.00
51439;BME280;38816;51.142;-0.974;2022-12-07T14:23:34;100552.47;;;2.55;100.00
51439;BME280;38816;51.142;-0.974;2022-12-07T14:26:19;100549.16;;;2.56;100.00
51439;BME280;38816;51.142;-0.974;2022-12-07T14:28:46;100549.56;;;2.64;100.00
51439;BME280;38816;51.142;-0.974;2022-12-07T14:31:16;100542.56;;;2.60;100.00
51439;BME280;38816;51.142;-0.974;2022-12-07T14:33:43;100545.84;;;2.57;100.00
51439;BME280;38816;51.142;-0.974;2022-12-07T14:36:10;100547.75;;;2.61;100.00
51439;BME280;38816;51.142;-0.974;2022-12-07T14:38:35;100545.91;;;2.59;100.00
51439;BME280;38816;51.142;-0.974;2022-12-07T14:41:02;100550.91;;;2.57;100.00
51439;BME280;38816;51.142;-0.974;2022-12-07T14:43:47;100545.97;;;2.60;100.00
51439;BME280;38816;51.142;-0.974;2022-12-07T14:46:13;100544.00;;;2.54;100.00
51439;BME280;38816;51.142;-0.974;2022-12-07T14:48:38;100545.34;;;2.48;100.00
51439;BME280;38816;51.142;-0.974;2022-12-07T14:51:04;100535.66;;;2.41;100.00
51439;BME280;38816;51.142;-0.974;2022-12-07T14:53:35;100537.94;;;2.36;100.00
51439;BME280;38816;51.142;-0.974;2022-12-07T14:56:02;100538.75;;;2.35;100.00
51439;BME280;38816;51.142;-0.974;2022-12-07T14:58:30;100531.03;;;2.34;100.00
51439;BME280;38816;51.142;-0.974;2022-12-07T15:00:56;100532.44;;;2.28;100.00